Time;durP1;ratioP1;P1;durP2;ratioP2;P2;SDS_P1;SDS_P2;PMS_P1;PMS_P2;Temp;Humidity;BMP_temperature;BMP_pressure;BME280_temperature;BME280_humidity;BME280_pressure;Samples;Min_cycle;Max_cycle;Signal;HPM_P1;HPM_P2
2023/07/17 00:01:51;;;;;;;7.82;3.20;;;;;;;;;;5063286;28;20051;-80
2023/07/17 00:04:18;;;;;;;7.50;2.90;;;;;;;;;;5062209;28;20075;-79
2023/07/17 00:06:45;;;;;;;9.50;3.30;;;;;;;;;;5060328;28;20462;-79
2023/07/17 00:09:12;;;;;;;8.90;3.15;;;;;;;;;;5059060;28;20044;-78
2023/07/17 00:11:41;;;;;;;5.68;2.97;;;;;;;;;;5058825;28;20037;-79
2023/07/17 00:14:08;;;;;;;5.43;2.90;;;;;;;;;;5061919;28;20112;-78
2023/07/17 00:16:34;;;;;;;7.43;3.28;;;;;;;;;;5060531;28;20097;-78
2023/07/17 00:19:01;;;;;;;5.45;2.60;;;;;;;;;;5059963;28;20037;-80
2023/07/17 00:21:28;;;;;;;8.93;2.75;;;;;;;;;;5061360;28;20052;-78
2023/07/17 00:23:55;;;;;;;7.63;3.03;;;;;;;;;;5064701;28;20171;-80
2023/07/17 00:26:22;;;;;;;10.45;3.08;;;;;;;;;;5072979;28;20045;-78
2023/07/17 00:28:48;;;;;;;7.40;3.13;;;;;;;;;;5061845;28;20040;-80
2023/07/17 00:31:19;;;;;;;8.35;3.17;;;;;;;;;;5059047;28;20596;-78
2023/07/17 00:33:47;;;;;;;5.63;3.20;;;;;;;;;;5059022;28;20236;-80
2023/07/17 00:36:14;;;;;;;10.68;3.33;;;;;;;;;;5060414;28;20514;-80
2023/07/17 00:38:40;;;;;;;7.93;3.20;;;;;;;;;;5061348;28;20552;-79
2023/07/17 00:41:07;;;;;;;6.82;3.20;;;;;;;;;;5072044;28;20075;-79
2023/07/17 00:43:33;;;;;;;8.63;3.53;;;;;;;;;;5069841;28;20483;-81
2023/07/17 00:46:04;;;;;;;7.18;3.45;;;;;;;;;;5068524;28;20053;-79
2023/07/17 00:48:33;;;;;;;9.18;3.22;;;;;;;;;;5076051;28;20094;-79
2023/07/17 00:51:03;;;;;;;5.50;3.15;;;;;;;;;;5079597;28;20040;-80
2023/07/17 00:53:31;;;;;;;7.40;2.80;;;;;;;;;;5055993;28;20127;-79
2023/07/17 00:55:58;;;;;;;8.70;2.70;;;;;;;;;;5070552;28;20062;-79
2023/07/17 00:58:25;;;;;;;5.07;3.08;;;;;;;;;;5071954;28;20104;-80
2023/07/17 01:00:52;;;;;;;9.18;3.50;;;;;;;;;;5062981;28;20287;-80
2023/07/17 01:03:20;;;;;;;7.47;3.28;;;;;;;;;;5076176;28;20052;-79
2023/07/17 01:05:47;;;;;;;6.05;2.85;;;;;;;;;;5078084;28;20094;-80
2023/07/17 01:08:15;;;;;;;7.03;2.80;;;;;;;;;;5059326;28;20071;-80
2023/07/17 01:10:44;;;;;;;7.70;3.33;;;;;;;;;;5076165;28;20051;-80
2023/07/17 01:13:11;;;;;;;8.05;3.28;;;;;;;;;;5059814;28;20044;-80
2023/07/17 01:15:38;;;;;;;9.93;3.15;;;;;;;;;;5075880;28;20060;-80
2023/07/17 01:18:04;;;;;;;8.18;3.47;;;;;;;;;;5079868;28;20104;-80
2023/07/17 01:20:31;;;;;;;6.20;2.90;;;;;;;;;;5080568;28;20078;-80
2023/07/17 01:22:59;;;;;;;5.20;2.90;;;;;;;;;;5078411;28;20051;-79
2023/07/17 01:25:34;;;;;;;6.38;2.75;;;;;;;;;;5078571;28;20068;-81
2023/07/17 01:28:01;;;;;;;5.32;3.22;;;;;;;;;;5078806;28;20068;-81
2023/07/17 01:30:28;;;;;;;8.18;3.13;;;;;;;;;;5079453;28;20110;-80
2023/07/17 01:32:55;;;;;;;5.35;3.10;;;;;;;;;;5077315;28;20209;-80
2023/07/17 01:35:22;;;;;;;7.63;2.85;;;;;;;;;;5078699;28;20052;-80
2023/07/17 01:37:49;;;;;;;5.97;3.10;;;;;;;;;;5071686;28;20045;-77
2023/07/17 01:40:16;;;;;;;9.23;2.97;;;;;;;;;;5056228;28;20076;-77
2023/07/17 01:42:43;;;;;;;5.68;3.03;;;;;;;;;;5070865;28;20101;-78
2023/07/17 01:45:10;;;;;;;6.53;2.85;;;;;;;;;;5061114;28;20522;-80
2023/07/17 01:47:37;;;;;;;6.30;2.83;;;;;;;;;;5057390;28;20045;-78
2023/07/17 01:50:04;;;;;;;5.35;2.85;;;;;;;;;;5059621;28;20044;-78
2023/07/17 01:52:31;;;;;;;4.60;2.78;;;;;;;;;;5066405;28;20139;-79
2023/07/17 01:54:57;;;;;;;5.45;2.92;;;;;;;;;;5056568;28;20395;-79
2023/07/17 01:57:24;;;;;;;6.72;3.15;;;;;;;;;;5058246;28;20169;-79
2023/07/17 01:59:54;;;;;;;5.28;2.75;;;;;;;;;;5058917;28;20298;-80
2023/07/17 02:02:20;;;;;;;6.63;2.90;;;;;;;;;;5057776;28;20056;-80
2023/07/17 02:04:53;;;;;;;6.93;3.45;;;;;;;;;;5059478;28;20110;-78
2023/07/17 02:07:20;;;;;;;6.63;3.20;;;;;;;;;;5058424;28;20057;-80
2023/07/17 02:09:47;;;;;;;6.70;3.15;;;;;;;;;;5057970;28;20390;-80
2023/07/17 02:12:14;;;;;;;6.75;3.13;;;;;;;;;;5059147;28;20063;-78
2023/07/17 02:14:41;;;;;;;6.03;3.20;;;;;;;;;;5058881;28;20453;-79
2023/07/17 02:17:08;;;;;;;6.22;2.90;;;;;;;;;;5059077;28;20087;-79
2023/07/17 02:19:35;;;;;;;6.07;3.22;;;;;;;;;;5060099;28;20101;-79
2023/07/17 02:22:02;;;;;;;6.53;2.67;;;;;;;;;;5057984;28;20116;-80
2023/07/17 02:24:28;;;;;;;6.45;2.97;;;;;;;;;;5058472;28;20108;-79
2023/07/17 02:26:57;;;;;;;5.43;3.03;;;;;;;;;;5058574;28;20110;-79
2023/07/17 02:29:24;;;;;;;4.68;2.72;;;;;;;;;;5051769;28;20071;-80
2023/07/17 02:31:51;;;;;;;6.32;3.10;;;;;;;;;;5060401;28;20033;-80
2023/07/17 02:34:18;;;;;;;5.95;3.15;;;;;;;;;;5059056;28;20132;-80
2023/07/17 02:36:45;;;;;;;6.75;3.10;;;;;;;;;;5060093;28;20055;-79
2023/07/17 02:39:11;;;;;;;5.78;2.70;;;;;;;;;;5072709;28;20335;-80
2023/07/17 02:41:39;;;;;;;7.50;2.85;;;;;;;;;;5080077;28;20057;-78
2023/07/17 02:44:06;;;;;;;6.38;3.28;;;;;;;;;;5078413;28;20068;-79
2023/07/17 02:46:33;;;;;;;6.47;3.00;;;;;;;;;;5080191;28;20075;-80
2023/07/17 02:49:00;;;;;;;6.88;3.47;;;;;;;;;;5080499;28;20056;-78
2023/07/17 02:51:27;;;;;;;9.60;3.20;;;;;;;;;;5079494;28;20136;-81
2023/07/17 02:53:53;;;;;;;5.28;2.78;;;;;;;;;;5081243;28;20553;-80
2023/07/17 02:56:21;;;;;;;5.90;2.97;;;;;;;;;;5080887;28;20049;-78
2023/07/17 02:58:48;;;;;;;5.90;2.90;;;;;;;;;;5080431;28;20414;-80
2023/07/17 03:01:15;;;;;;;4.53;2.50;;;;;;;;;;5079483;28;20064;-79
2023/07/17 03:03:42;;;;;;;8.30;2.90;;;;;;;;;;5078141;28;20048;-79
2023/07/17 03:06:11;;;;;;;7.40;2.72;;;;;;;;;;5077197;28;20037;-76
2023/07/17 03:08:37;;;;;;;5.85;2.47;;;;;;;;;;5077075;28;20049;-81
2023/07/17 03:11:04;;;;;;;4.97;3.20;;;;;;;;;;5076620;28;20040;-79
2023/07/17 03:13:32;;;;;;;7.88;2.75;;;;;;;;;;5079083;28;20037;-80
2023/07/17 03:15:58;;;;;;;9.90;3.00;;;;;;;;;;5063503;28;20083;-79
2023/07/17 03:18:26;;;;;;;8.15;2.78;;;;;;;;;;5081823;28;20062;-80
2023/07/17 03:20:54;;;;;;;6.57;3.10;;;;;;;;;;5072548;28;20032;-80
2023/07/17 03:23:21;;;;;;;8.60;2.92;;;;;;;;;;5082136;28;20111;-78
2023/07/17 03:25:47;;;;;;;8.85;2.45;;;;;;;;;;5082213;28;20140;-81
2023/07/17 03:28:14;;;;;;;5.30;2.60;;;;;;;;;;5083875;28;20063;-80
2023/07/17 03:30:41;;;;;;;7.55;2.97;;;;;;;;;;5084175;28;20048;-78
2023/07/17 03:33:08;;;;;;;8.00;3.35;;;;;;;;;;5091595;28;20044;-79
2023/07/17 03:35:34;;;;;;;6.93;2.75;;;;;;;;;;5093627;28;20241;-80
2023/07/17 03:38:01;;;;;;;9.15;2.60;;;;;;;;;;5087389;28;20036;-81
2023/07/17 03:40:28;;;;;;;5.20;2.80;;;;;;;;;;5068830;28;20052;-80
2023/07/17 03:42:54;;;;;;;7.03;3.10;;;;;;;;;;5065813;28;20044;-79
2023/07/17 03:45:21;;;;;;;7.38;2.97;;;;;;;;;;5064330;28;20095;-81
2023/07/17 03:47:51;;;;;;;8.15;2.97;;;;;;;;;;5062606;28;20534;-80
2023/07/17 03:50:18;;;;;;;6.82;3.13;;;;;;;;;;5063802;28;20053;-80
2023/07/17 03:52:45;;;;;;;6.53;2.65;;;;;;;;;;5063379;28;20063;-81
2023/07/17 03:55:11;;;;;;;7.25;3.30;;;;;;;;;;5060957;28;20460;-78
2023/07/17 03:57:38;;;;;;;7.35;3.13;;;;;;;;;;5056503;28;20041;-78
2023/07/17 04:00:09;;;;;;;6.15;2.78;;;;;;;;;;5056493;28;20141;-79
2023/07/17 04:02:42;;;;;;;4.90;3.05;;;;;;;;;;5063558;28;20041;-78
2023/07/17 04:05:18;;;;;;;8.88;3.45;;;;;;;;;;5063422;28;20068;-76
2023/07/17 04:07:45;;;;;;;5.20;2.92;;;;;;;;;;5062195;28;20139;-79
2023/07/17 04:10:11;;;;;;;5.10;3.05;;;;;;;;;;5060829;28;20259;-79
2023/07/17 04:12:41;;;;;;;6.40;3.17;;;;;;;;;;5062900;28;20075;-79
2023/07/17 04:15:08;;;;;;;7.28;3.13;;;;;;;;;;5061582;28;20387;-79
2023/07/17 04:17:35;;;;;;;5.50;2.50;;;;;;;;;;5060064;28;20071;-81
2023/07/17 04:20:02;;;;;;;6.20;2.60;;;;;;;;;;5060117;28;20664;-79
2023/07/17 04:22:29;;;;;;;6.95;3.22;;;;;;;;;;5062395;28;20063;-79
2023/07/17 04:24:56;;;;;;;7.45;3.30;;;;;;;;;;5078242;28;20056;-82
2023/07/17 04:27:24;;;;;;;8.02;3.20;;;;;;;;;;5081296;28;20072;-80
2023/07/17 04:29:51;;;;;;;5.22;2.92;;;;;;;;;;5082570;28;20100;-81
2023/07/17 04:32:18;;;;;;;6.65;3.00;;;;;;;;;;5082288;28;20394;-78
2023/07/17 04:34:45;;;;;;;7.53;3.00;;;;;;;;;;5084077;28;20040;-81
2023/07/17 04:37:12;;;;;;;10.55;3.33;;;;;;;;;;5080552;28;20045;-81
2023/07/17 04:39:38;;;;;;;7.47;3.25;;;;;;;;;;5063210;28;20049;-81
2023/07/17 04:42:05;;;;;;;9.23;3.55;;;;;;;;;;5062034;28;20045;-81
2023/07/17 04:44:33;;;;;;;6.28;3.20;;;;;;;;;;5061815;28;20528;-81
2023/07/17 04:47:01;;;;;;;7.45;2.88;;;;;;;;;;5060671;28;20132;-81
2023/07/17 04:49:34;;;;;;;7.72;2.75;;;;;;;;;;5061680;28;20041;-82
2023/07/17 04:52:01;;;;;;;6.90;3.10;;;;;;;;;;5061345;28;20143;-81
2023/07/17 04:54:27;;;;;;;5.20;2.50;;;;;;;;;;5059447;28;20052;-81
2023/07/17 04:56:54;;;;;;;7.57;2.80;;;;;;;;;;5059304;28;20127;-80
2023/07/17 04:59:22;;;;;;;6.63;2.83;;;;;;;;;;5060540;28;20041;-80
2023/07/17 05:01:49;;;;;;;6.45;2.85;;;;;;;;;;5056470;28;20515;-80
2023/07/17 05:04:16;;;;;;;8.80;3.15;;;;;;;;;;5048425;28;20045;-79
2023/07/17 05:06:42;;;;;;;6.05;2.70;;;;;;;;;;5050242;28;20068;-80
2023/07/17 05:09:10;;;;;;;8.32;2.88;;;;;;;;;;5048486;28;20098;-80
2023/07/17 05:11:37;;;;;;;7.00;2.50;;;;;;;;;;5051720;28;20037;-80
2023/07/17 05:14:03;;;;;;;7.03;3.03;;;;;;;;;;5052263;28;20072;-79
2023/07/17 05:16:30;;;;;;;5.35;2.75;;;;;;;;;;5051650;28;20414;-80
2023/07/17 05:18:57;;;;;;;6.03;2.67;;;;;;;;;;5051813;28;20080;-79
2023/07/17 05:21:28;;;;;;;6.20;2.50;;;;;;;;;;5053931;28;20286;-80
2023/07/17 05:23:55;;;;;;;8.98;2.67;;;;;;;;;;5052558;28;20052;-79
2023/07/17 05:26:22;;;;;;;4.57;2.42;;;;;;;;;;5029419;28;20053;-80
2023/07/17 05:28:50;;;;;;;7.88;2.75;;;;;;;;;;5054528;28;20048;-79
2023/07/17 05:31:17;;;;;;;6.40;2.92;;;;;;;;;;5054718;28;20445;-81
2023/07/17 05:33:45;;;;;;;8.45;2.90;;;;;;;;;;5056954;28;20053;-79
2023/07/17 05:36:12;;;;;;;8.75;2.97;;;;;;;;;;5057288;28;20037;-80
2023/07/17 05:38:39;;;;;;;8.00;2.97;;;;;;;;;;5067344;28;20080;-81
2023/07/17 05:41:07;;;;;;;8.48;2.67;;;;;;;;;;5077817;28;20608;-80
2023/07/17 05:43:34;;;;;;;5.97;2.85;;;;;;;;;;5081978;28;20052;-81
2023/07/17 05:46:09;;;;;;;7.37;2.80;;;;;;;;;;5079247;28;20053;-81
2023/07/17 05:48:36;;;;;;;8.10;2.67;;;;;;;;;;5084659;28;20071;-79
2023/07/17 05:51:03;;;;;;;6.07;2.63;;;;;;;;;;5085968;28;20028;-79
2023/07/17 05:53:30;;;;;;;4.05;2.40;;;;;;;;;;5086096;28;20064;-80
2023/07/17 05:55:56;;;;;;;7.60;3.00;;;;;;;;;;5089456;28;20071;-80
2023/07/17 05:58:23;;;;;;;6.38;2.78;;;;;;;;;;5086090;28;20108;-79
2023/07/17 06:00:49;;;;;;;8.27;3.00;;;;;;;;;;5085672;28;20056;-80
2023/07/17 06:03:17;;;;;;;5.05;2.50;;;;;;;;;;5082320;28;20040;-82
2023/07/17 06:05:44;;;;;;;7.32;2.90;;;;;;;;;;5085129;28;20049;-81
2023/07/17 06:08:11;;;;;;;6.35;3.00;;;;;;;;;;5083130;28;20109;-81
2023/07/17 06:10:38;;;;;;;7.45;3.05;;;;;;;;;;5082001;28;20055;-80
2023/07/17 06:13:04;;;;;;;6.75;3.00;;;;;;;;;;5081048;28;20067;-79
2023/07/17 06:15:31;;;;;;;8.57;3.38;;;;;;;;;;5079846;28;20079;-80
2023/07/17 06:17:57;;;;;;;7.30;3.08;;;;;;;;;;5076879;28;20032;-80
2023/07/17 06:20:24;;;;;;;7.25;3.03;;;;;;;;;;5075878;28;20045;-79
2023/07/17 06:22:50;;;;;;;7.85;3.15;;;;;;;;;;5077736;28;20051;-80
2023/07/17 06:25:17;;;;;;;6.38;2.92;;;;;;;;;;5077258;28;20037;-79
2023/07/17 06:27:44;;;;;;;7.68;3.30;;;;;;;;;;5078804;28;20051;-80
2023/07/17 06:30:11;;;;;;;9.65;3.13;;;;;;;;;;5076551;28;20040;-80
2023/07/17 06:32:37;;;;;;;5.85;2.70;;;;;;;;;;5077250;28;20048;-80
2023/07/17 06:35:07;;;;;;;9.52;3.42;;;;;;;;;;5077840;28;20059;-79
2023/07/17 06:37:34;;;;;;;9.65;3.72;;;;;;;;;;5076131;28;20051;-82
2023/07/17 06:40:00;;;;;;;5.55;3.10;;;;;;;;;;5058976;28;20049;-80
2023/07/17 06:42:30;;;;;;;8.18;3.10;;;;;;;;;;5060210;28;20064;-82
2023/07/17 06:44:57;;;;;;;8.35;2.92;;;;;;;;;;5059460;28;20060;-81
2023/07/17 06:47:27;;;;;;;8.50;3.05;;;;;;;;;;5057883;28;20052;-80
2023/07/17 06:50:02;;;;;;;6.00;3.33;;;;;;;;;;5060400;28;20036;-80
2023/07/17 06:52:29;;;;;;;7.85;3.08;;;;;;;;;;5061989;28;20072;-78
2023/07/17 06:54:56;;;;;;;8.65;3.13;;;;;;;;;;5060655;28;20044;-81
2023/07/17 06:57:30;;;;;;;9.75;3.00;;;;;;;;;;5061457;28;20048;-81
2023/07/17 06:59:57;;;;;;;5.93;3.05;;;;;;;;;;5060255;28;20062;-79
2023/07/17 07:02:29;;;;;;;5.00;2.78;;;;;;;;;;5060696;28;20045;-80
2023/07/17 07:04:59;;;;;;;10.20;3.28;;;;;;;;;;5061348;28;20051;-79
2023/07/17 07:07:26;;;;;;;5.43;2.78;;;;;;;;;;5064224;28;20037;-79
2023/07/17 07:09:52;;;;;;;5.57;2.95;;;;;;;;;;5063229;28;20053;-79
2023/07/17 07:12:19;;;;;;;6.63;3.17;;;;;;;;;;5061235;28;20044;-81
2023/07/17 07:14:46;;;;;;;9.38;3.10;;;;;;;;;;5061155;28;20110;-81
2023/07/17 07:17:12;;;;;;;6.65;3.00;;;;;;;;;;5060751;28;20044;-79
2023/07/17 07:19:39;;;;;;;6.85;2.83;;;;;;;;;;5060712;28;20049;-79
2023/07/17 07:22:05;;;;;;;9.75;3.40;;;;;;;;;;5062803;28;20626;-79
2023/07/17 07:24:32;;;;;;;6.95;3.10;;;;;;;;;;5060487;28;20045;-82
2023/07/17 07:26:59;;;;;;;6.38;2.95;;;;;;;;;;5061984;28;20048;-79
2023/07/17 07:29:25;;;;;;;6.82;2.85;;;;;;;;;;5062361;28;20052;-80
2023/07/17 07:31:52;;;;;;;6.97;2.95;;;;;;;;;;5061832;28;20052;-81
2023/07/17 07:34:19;;;;;;;5.57;2.63;;;;;;;;;;5060396;28;20052;-79
2023/07/17 07:36:46;;;;;;;8.75;2.90;;;;;;;;;;5060934;28;20096;-79
2023/07/17 07:39:12;;;;;;;7.03;2.58;;;;;;;;;;5076011;28;20052;-81
2023/07/17 07:41:42;;;;;;;7.75;2.58;;;;;;;;;;5080951;28;20036;-81
2023/07/17 07:44:09;;;;;;;7.30;2.70;;;;;;;;;;5078229;28;20438;-80
2023/07/17 07:46:38;;;;;;;9.15;3.05;;;;;;;;;;5080747;28;20263;-78
2023/07/17 07:49:05;;;;;;;6.68;2.60;;;;;;;;;;5079783;28;20506;-81
2023/07/17 07:51:31;;;;;;;8.18;3.00;;;;;;;;;;5080911;28;20075;-80
2023/07/17 07:53:58;;;;;;;9.65;2.90;;;;;;;;;;5079587;28;20056;-79
2023/07/17 07:56:24;;;;;;;7.13;2.80;;;;;;;;;;5078137;28;20064;-79
2023/07/17 07:58:51;;;;;;;4.43;2.65;;;;;;;;;;5081081;28;20043;-80
2023/07/17 08:01:18;;;;;;;4.68;2.58;;;;;;;;;;5079407;28;20060;-79
2023/07/17 08:03:44;;;;;;;7.18;2.80;;;;;;;;;;5078858;28;20075;-78
2023/07/17 08:06:11;;;;;;;8.90;2.78;;;;;;;;;;5080479;28;20037;-81
2023/07/17 08:08:38;;;;;;;7.97;2.70;;;;;;;;;;5078950;28;20044;-80
2023/07/17 08:11:04;;;;;;;7.22;3.05;;;;;;;;;;5078282;28;20049;-80
2023/07/17 08:13:31;;;;;;;7.57;3.10;;;;;;;;;;5079884;28;20045;-78
2023/07/17 08:15:57;;;;;;;5.00;2.55;;;;;;;;;;5077735;28;20063;-78
2023/07/17 08:18:24;;;;;;;9.20;2.80;;;;;;;;;;5080535;28;20044;-79
2023/07/17 08:20:51;;;;;;;5.88;2.33;;;;;;;;;;5079682;28;20071;-78
2023/07/17 08:23:25;;;;;;;5.95;2.75;;;;;;;;;;5080511;28;20104;-80
2023/07/17 08:25:52;;;;;;;6.38;2.70;;;;;;;;;;5076710;28;20056;-79
2023/07/17 08:28:18;;;;;;;7.47;2.40;;;;;;;;;;5079521;28;20047;-79
2023/07/17 08:30:45;;;;;;;6.50;2.53;;;;;;;;;;5078440;28;20108;-80
2023/07/17 08:33:11;;;;;;;11.13;2.60;;;;;;;;;;5078926;28;20055;-80
2023/07/17 08:35:42;;;;;;;5.28;2.80;;;;;;;;;;5077056;28;20081;-80
2023/07/17 08:38:08;;;;;;;6.57;3.00;;;;;;;;;;5071028;28;20045;-79
2023/07/17 08:40:38;;;;;;;7.18;2.72;;;;;;;;;;5057174;28;20077;-80
2023/07/17 08:43:05;;;;;;;6.15;2.53;;;;;;;;;;5060385;28;20538;-80
2023/07/17 08:45:33;;;;;;;9.13;3.08;;;;;;;;;;5057426;28;20069;-81
2023/07/17 08:48:00;;;;;;;5.22;2.40;;;;;;;;;;5059897;28;20060;-81
2023/07/17 08:50:28;;;;;;;6.88;2.78;;;;;;;;;;5060289;28;20056;-79
2023/07/17 08:52:55;;;;;;;9.60;3.08;;;;;;;;;;5058398;28;20055;-80
2023/07/17 08:55:21;;;;;;;9.18;3.03;;;;;;;;;;5058311;28;20049;-80
2023/07/17 08:57:52;;;;;;;6.07;2.63;;;;;;;;;;5057611;28;20052;-80
2023/07/17 09:00:19;;;;;;;7.10;2.78;;;;;;;;;;5057732;28;20404;-79
2023/07/17 09:02:46;;;;;;;8.30;2.85;;;;;;;;;;5058077;28;20148;-79
2023/07/17 09:05:13;;;;;;;7.75;3.20;;;;;;;;;;5057530;28;20045;-79
2023/07/17 09:07:39;;;;;;;7.07;2.47;;;;;;;;;;5056321;28;20055;-79
2023/07/17 09:10:12;;;;;;;9.35;3.13;;;;;;;;;;5044922;28;20605;-79
2023/07/17 09:12:42;;;;;;;7.68;3.30;;;;;;;;;;5054679;28;20048;-77
2023/07/17 09:15:13;;;;;;;10.68;3.20;;;;;;;;;;5062933;28;20052;-80
2023/07/17 09:17:40;;;;;;;6.95;2.80;;;;;;;;;;5065514;28;20077;-81
2023/07/17 09:20:10;;;;;;;6.15;2.70;;;;;;;;;;5052747;28;20049;-78
2023/07/17 09:22:38;;;;;;;7.25;3.03;;;;;;;;;;5051972;28;20045;-79
2023/07/17 09:25:05;;;;;;;9.85;3.10;;;;;;;;;;5051413;28;20104;-79
2023/07/17 09:27:45;;;;;;;6.18;2.90;;;;;;;;;;5052612;28;20068;-78
2023/07/17 09:30:16;;;;;;;10.27;3.33;;;;;;;;;;5055073;28;20238;-79
2023/07/17 09:32:46;;;;;;;7.90;2.80;;;;;;;;;;5054463;28;20053;-78
2023/07/17 09:35:13;;;;;;;9.48;3.30;;;;;;;;;;5056692;28;20443;-80
2023/07/17 09:37:41;;;;;;;4.78;2.70;;;;;;;;;;5057436;28;20069;-78
2023/07/17 09:40:11;;;;;;;6.57;2.95;;;;;;;;;;5074867;28;20059;-79
2023/07/17 09:42:39;;;;;;;8.45;3.00;;;;;;;;;;5075570;28;20106;-79
2023/07/17 09:45:06;;;;;;;4.68;2.60;;;;;;;;;;5074305;28;20075;-79
2023/07/17 09:47:33;;;;;;;8.57;3.10;;;;;;;;;;5075815;28;20056;-79
2023/07/17 09:50:01;;;;;;;6.57;2.90;;;;;;;;;;5076705;28;20489;-80
2023/07/17 09:52:31;;;;;;;7.50;2.90;;;;;;;;;;5076178;28;20076;-79
2023/07/17 09:55:00;;;;;;;4.65;2.70;;;;;;;;;;5074938;28;20033;-79
2023/07/17 09:57:28;;;;;;;5.13;2.72;;;;;;;;;;5071928;28;20131;-80
2023/07/17 09:59:56;;;;;;;7.47;3.17;;;;;;;;;;5074173;28;20124;-79
2023/07/17 10:02:26;;;;;;;6.03;2.72;;;;;;;;;;5056221;28;20451;-78
2023/07/17 10:04:53;;;;;;;8.13;2.63;;;;;;;;;;5076594;28;20098;-80
2023/07/17 10:07:20;;;;;;;4.45;2.70;;;;;;;;;;5075704;28;20045;-80
2023/07/17 10:09:48;;;;;;;5.88;3.03;;;;;;;;;;5076034;28;20078;-79
2023/07/17 10:12:16;;;;;;;6.82;3.10;;;;;;;;;;5073780;28;20063;-79
2023/07/17 10:14:44;;;;;;;4.90;2.70;;;;;;;;;;5076556;28;20075;-80
2023/07/17 10:17:30;;;;;;;6.65;3.00;;;;;;;;;;5075450;28;20048;-80
2023/07/17 10:19:57;;;;;;;;;;;;;;;;;;5074383;28;20041;-80
2023/07/17 10:22:27;;;;;;;11.77;3.22;;;;;;;;;;5076570;28;19951;-80
2023/07/17 10:24:54;;;;;;;11.73;3.70;;;;;;;;;;5075598;28;20036;-80
2023/07/17 10:27:37;;;;;;;8.27;3.17;;;;;;;;;;5075135;28;20598;-79
2023/07/17 10:30:23;;;;;;;8.90;3.20;;;;;;;;;;5077693;28;20522;-80
2023/07/17 10:33:02;;;;;;;8.43;3.30;;;;;;;;;;5075925;28;20051;-79
2023/07/17 10:35:31;;;;;;;7.22;3.50;;;;;;;;;;5076879;28;20056;-79
2023/07/17 10:38:10;;;;;;;5.50;3.10;;;;;;;;;;5074941;28;20036;-79
2023/07/17 10:40:37;;;;;;;8.30;3.00;;;;;;;;;;5077178;28;20499;-81
2023/07/17 10:43:10;;;;;;;6.43;3.40;;;;;;;;;;5076298;28;20108;-81
2023/07/17 10:45:37;;;;;;;6.30;3.35;;;;;;;;;;5075740;28;20065;-80
2023/07/17 10:48:06;;;;;;;6.28;2.95;;;;;;;;;;5073499;28;20478;-80
2023/07/17 10:50:33;;;;;;;7.20;3.30;;;;;;;;;;5074858;28;20127;-80
2023/07/17 10:53:01;;;;;;;4.20;2.88;;;;;;;;;;5074605;28;20041;-78
2023/07/17 10:55:27;;;;;;;10.75;3.30;;;;;;;;;;5073386;28;20279;-80
2023/07/17 10:57:55;;;;;;;4.90;3.08;;;;;;;;;;5072298;28;20055;-80
2023/07/17 11:00:22;;;;;;;7.13;2.90;;;;;;;;;;5074639;28;20052;-81
2023/07/17 11:02:48;;;;;;;7.30;3.10;;;;;;;;;;5075270;28;20060;-80
2023/07/17 11:05:15;;;;;;;8.52;3.40;;;;;;;;;;5079669;28;20044;-81
2023/07/17 11:07:42;;;;;;;5.03;2.90;;;;;;;;;;5074731;28;20091;-80
2023/07/17 11:10:12;;;;;;;7.65;3.53;;;;;;;;;;5076217;28;20041;-81
2023/07/17 11:12:39;;;;;;;5.93;3.30;;;;;;;;;;5080244;28;20053;-79
2023/07/17 11:15:16;;;;;;;5.70;3.25;;;;;;;;;;5079964;28;20055;-79
2023/07/17 11:17:43;;;;;;;6.07;3.30;;;;;;;;;;5061895;28;20467;-80
2023/07/17 11:20:11;;;;;;;5.68;2.88;;;;;;;;;;5076943;28;20036;-80
2023/07/17 11:22:40;;;;;;;8.10;2.95;;;;;;;;;;5076760;28;20048;-81
2023/07/17 11:25:08;;;;;;;6.18;3.10;;;;;;;;;;5077387;28;20391;-80
2023/07/17 11:27:35;;;;;;;8.18;2.90;;;;;;;;;;5076637;28;20056;-79
2023/07/17 11:30:12;;;;;;;6.68;3.10;;;;;;;;;;5075118;28;20092;-81
2023/07/17 11:32:39;;;;;;;6.72;2.80;;;;;;;;;;5075932;28;20052;-80
2023/07/17 11:35:08;;;;;;;7.68;3.08;;;;;;;;;;5078752;28;20045;-81
2023/07/17 11:37:37;;;;;;;5.53;2.67;;;;;;;;;;5077150;28;20052;-80
2023/07/17 11:40:05;;;;;;;5.35;2.80;;;;;;;;;;5057874;28;20542;-80
2023/07/17 11:42:50;;;;;;;6.10;2.95;;;;;;;;;;5060064;28;20045;-77
2023/07/17 11:45:19;;;;;;;5.60;3.17;;;;;;;;;;5058571;28;20452;-79
2023/07/17 11:47:46;;;;;;;4.85;2.88;;;;;;;;;;5059183;28;20045;-81
2023/07/17 11:50:12;;;;;;;4.47;2.47;;;;;;;;;;5059787;28;20091;-80
2023/07/17 11:52:39;;;;;;;8.60;3.50;;;;;;;;;;5059701;28;20106;-79
2023/07/17 11:55:06;;;;;;;6.20;3.10;;;;;;;;;;5058986;28;20254;-79
2023/07/17 11:57:33;;;;;;;6.60;3.00;;;;;;;;;;5059589;28;20045;-80
2023/07/17 12:00:03;;;;;;;7.10;3.10;;;;;;;;;;5059663;28;20056;-80
2023/07/17 12:02:40;;;;;;;4.57;2.72;;;;;;;;;;5056885;28;20072;-80
2023/07/17 12:05:06;;;;;;;4.80;3.13;;;;;;;;;;5056465;28;20069;-78
2023/07/17 12:07:33;;;;;;;4.93;2.63;;;;;;;;;;5056712;28;20076;-79
2023/07/17 12:10:00;;;;;;;6.60;3.15;;;;;;;;;;5059763;28;20045;-80
2023/07/17 12:12:26;;;;;;;7.47;3.08;;;;;;;;;;5060399;28;20531;-78
2023/07/17 12:14:53;;;;;;;4.05;2.70;;;;;;;;;;5060437;28;20071;-79
2023/07/17 12:17:20;;;;;;;4.95;2.47;;;;;;;;;;5057233;28;20278;-78
2023/07/17 12:19:46;;;;;;;4.35;2.47;;;;;;;;;;5060153;28;20048;-80
2023/07/17 12:22:13;;;;;;;9.35;3.15;;;;;;;;;;5072182;28;20045;-81
2023/07/17 12:24:42;;;;;;;4.97;2.60;;;;;;;;;;5071329;28;20278;-78
2023/07/17 12:27:09;;;;;;;8.07;2.55;;;;;;;;;;5072171;28;20068;-78
2023/07/17 12:29:36;;;;;;;6.50;2.58;;;;;;;;;;5073134;28;20112;-79
2023/07/17 12:32:04;;;;;;;6.35;2.72;;;;;;;;;;5073373;28;20043;-79
2023/07/17 12:34:33;;;;;;;5.18;2.90;;;;;;;;;;5070028;28;20053;-78
2023/07/17 12:36:59;;;;;;;4.80;2.60;;;;;;;;;;5072900;28;20059;-79
2023/07/17 12:39:26;;;;;;;6.65;2.60;;;;;;;;;;5088809;28;20063;-78
2023/07/17 12:41:53;;;;;;;8.30;2.40;;;;;;;;;;5089463;28;20040;-78
2023/07/17 12:44:19;;;;;;;4.88;2.47;;;;;;;;;;5077870;28;20060;-80
2023/07/17 12:46:46;;;;;;;4.15;2.22;;;;;;;;;;5078560;28;20097;-80
2023/07/17 12:49:12;;;;;;;6.15;2.80;;;;;;;;;;5078097;28;20044;-79
2023/07/17 12:51:39;;;;;;;4.25;2.28;;;;;;;;;;5079127;28;20059;-78
2023/07/17 12:54:06;;;;;;;5.20;2.85;;;;;;;;;;5078129;28;20064;-79
2023/07/17 12:56:32;;;;;;;4.55;2.55;;;;;;;;;;5079144;28;20049;-79
2023/07/17 12:58:59;;;;;;;8.70;3.00;;;;;;;;;;5079158;28;20055;-79
2023/07/17 13:01:26;;;;;;;12.95;2.90;;;;;;;;;;5079343;28;20047;-78
2023/07/17 13:03:52;;;;;;;3.83;2.40;;;;;;;;;;5076827;28;20044;-79
2023/07/17 13:06:20;;;;;;;8.45;2.72;;;;;;;;;;5078657;28;20127;-79
2023/07/17 13:08:47;;;;;;;7.88;2.60;;;;;;;;;;5078943;28;20048;-78
2023/07/17 13:11:14;;;;;;;3.67;2.33;;;;;;;;;;5077327;28;20675;-80
2023/07/17 13:13:41;;;;;;;6.35;2.90;;;;;;;;;;5079216;28;20119;-79
2023/07/17 13:16:07;;;;;;;6.45;3.03;;;;;;;;;;5077175;28;20044;-81
2023/07/17 13:18:35;;;;;;;6.97;2.65;;;;;;;;;;5074630;28;20054;-80
2023/07/17 13:21:02;;;;;;;4.43;2.25;;;;;;;;;;5075413;28;20480;-80
2023/07/17 13:23:29;;;;;;;3.50;2.08;;;;;;;;;;5081101;28;20047;-81
2023/07/17 13:25:55;;;;;;;5.90;2.92;;;;;;;;;;5071491;28;20040;-79
2023/07/17 13:28:22;;;;;;;4.45;2.50;;;;;;;;;;5073362;28;20404;-79
2023/07/17 13:30:49;;;;;;;4.40;2.70;;;;;;;;;;5071910;28;20045;-79
2023/07/17 13:33:33;;;;;;;4.60;2.50;;;;;;;;;;5071174;28;20067;-79
2023/07/17 13:35:59;;;;;;;6.90;2.65;;;;;;;;;;5075724;28;20048;-79
2023/07/17 13:38:27;;;;;;;4.75;2.80;;;;;;;;;;5070155;28;20041;-81
2023/07/17 13:40:54;;;;;;;5.03;2.58;;;;;;;;;;5056556;28;20528;-81
2023/07/17 13:43:20;;;;;;;6.28;2.53;;;;;;;;;;5056179;28;20454;-80
2023/07/17 13:45:50;;;;;;;6.38;2.40;;;;;;;;;;5052030;28;20545;-78
2023/07/17 13:48:18;;;;;;;4.22;2.47;;;;;;;;;;5053297;28;20048;-79
2023/07/17 13:50:45;;;;;;;4.95;2.00;;;;;;;;;;5037325;28;20045;-79
2023/07/17 13:53:12;;;;;;;6.22;2.33;;;;;;;;;;5055339;28;20051;-79
2023/07/17 13:55:40;;;;;;;3.65;2.20;;;;;;;;;;5052288;28;20037;-79
2023/07/17 13:58:07;;;;;;;5.78;2.40;;;;;;;;;;5051642;28;20499;-77
2023/07/17 14:00:42;;;;;;;4.75;2.15;;;;;;;;;;5053774;28;20061;-79
2023/07/17 14:03:08;;;;;;;4.15;2.22;;;;;;;;;;5052797;28;20055;-78
2023/07/17 14:05:35;;;;;;;6.45;2.30;;;;;;;;;;5053455;28;20469;-79
2023/07/17 14:08:02;;;;;;;5.90;2.40;;;;;;;;;;5052277;28;20520;-79
2023/07/17 14:10:29;;;;;;;5.63;2.20;;;;;;;;;;5053534;28;20511;-78
2023/07/17 14:12:56;;;;;;;5.68;2.20;;;;;;;;;;5054368;28;25554;-78
2023/07/17 14:15:22;;;;;;;5.13;2.20;;;;;;;;;;5054856;28;20053;-78
2023/07/17 14:17:49;;;;;;;7.85;2.40;;;;;;;;;;5054856;28;20106;-78
2023/07/17 14:20:15;;;;;;;8.77;2.55;;;;;;;;;;5058924;28;20060;-80
2023/07/17 14:22:43;;;;;;;4.63;1.83;;;;;;;;;;5055016;28;20033;-78
2023/07/17 14:25:10;;;;;;;4.15;2.03;;;;;;;;;;5054154;28;20047;-79
2023/07/17 14:27:37;;;;;;;6.82;2.45;;;;;;;;;;5055393;28;20041;-77
2023/07/17 14:30:04;;;;;;;3.97;2.10;;;;;;;;;;5057650;28;20036;-80
2023/07/17 14:32:31;;;;;;;4.78;2.10;;;;;;;;;;5055712;28;20095;-79
2023/07/17 14:34:57;;;;;;;5.57;2.30;;;;;;;;;;5056760;28;20040;-79
2023/07/17 14:37:24;;;;;;;6.03;2.58;;;;;;;;;;5057370;28;20051;-79
2023/07/17 14:39:51;;;;;;;6.80;2.03;;;;;;;;;;5054634;28;20072;-80
2023/07/17 14:42:17;;;;;;;5.28;1.98;;;;;;;;;;5057055;28;20037;-79
2023/07/17 14:44:45;;;;;;;7.18;2.70;;;;;;;;;;5057438;28;20044;-79
2023/07/17 14:47:11;;;;;;;6.13;2.60;;;;;;;;;;5057238;28;20075;-79